Time;durP1;ratioP1;P1;durP2;ratioP2;P2;SDS_P1;SDS_P2;PMS_P1;PMS_P2;Temp;Humidity;BMP_temperature;BMP_pressure;BME280_temperature;BME280_humidity;BME280_pressure;Samples;Min_cycle;Max_cycle;Signal;HPM_P1;HPM_P2
2023/03/08 00:01:58;;;;;;;8.48;4.78;;;;;;;-3.00;94.46;100151.78;4913957;28;20067;-69
2023/03/08 00:04:28;;;;;;;8.10;5.00;;;;;;;-3.01;94.70;100144.06;4915114;28;20058;-67
2023/03/08 00:06:59;;;;;;;6.30;3.95;;;;;;;-2.96;94.84;100150.22;4910088;28;20061;-70
2023/03/08 00:09:29;;;;;;;7.90;4.75;;;;;;;-2.99;94.91;100150.13;4914218;28;20129;-70
2023/03/08 00:12:00;;;;;;;7.05;3.78;;;;;;;-3.10;94.17;100148.03;4903662;28;20060;-67
2023/03/08 00:14:30;;;;;;;3.90;2.80;;;;;;;-3.30;94.01;100148.97;4919030;28;21032;-71
2023/03/08 00:17:03;;;;;;;5.68;3.67;;;;;;;-3.41;94.10;100155.38;4917520;28;20067;-71
2023/03/08 00:19:33;;;;;;;4.15;2.88;;;;;;;-3.63;94.39;100129.00;4905387;28;20056;-71
2023/03/08 00:22:04;;;;;;;4.68;2.70;;;;;;;-3.69;95.17;100134.75;4903412;28;20087;-70
2023/03/08 00:24:35;;;;;;;6.05;3.40;;;;;;;-3.66;95.90;100136.56;4893048;28;20057;-67
2023/03/08 00:27:05;;;;;;;4.97;3.13;;;;;;;-3.75;95.56;100108.09;4905918;28;20056;-66
2023/03/08 00:29:36;;;;;;;4.82;3.15;;;;;;;-3.66;95.63;100118.69;4916743;28;20063;-73
2023/03/08 00:32:08;;;;;;;7.15;4.07;;;;;;;-3.58;95.79;100117.28;4914792;28;20064;-71
2023/03/08 00:34:45;;;;;;;5.85;3.70;;;;;;;-3.40;96.00;100118.78;4910047;28;20063;-70
2023/03/08 00:37:16;;;;;;;5.25;3.30;;;;;;;-3.44;95.13;100119.47;4912516;28;20041;-70
2023/03/08 00:39:52;;;;;;;5.53;3.28;;;;;;;-3.49;94.31;100107.44;4899175;28;20107;-70
2023/03/08 00:42:23;;;;;;;3.75;2.72;;;;;;;-3.79;94.13;100055.22;4905092;28;20082;-71
2023/03/08 00:44:54;;;;;;;6.22;3.20;;;;;;;-3.38;94.64;100094.19;4925584;28;20052;-67
2023/03/08 00:47:26;;;;;;;5.40;3.35;;;;;;;-3.30;94.42;100078.28;4914608;28;20482;-67
2023/03/08 00:49:57;;;;;;;9.02;4.88;;;;;;;-3.30;94.32;100077.44;4915869;28;20099;-70
2023/03/08 00:52:28;;;;;;;5.70;3.05;;;;;;;-3.24;93.91;100067.44;4928692;28;20045;-67
2023/03/08 00:54:58;;;;;;;5.60;3.33;;;;;;;-3.35;93.18;100040.63;4926138;28;20053;-70
2023/03/08 00:57:30;;;;;;;4.13;2.75;;;;;;;-3.10;93.40;100061.13;4920588;28;20056;-69
2023/03/08 01:00:01;;;;;;;6.55;3.65;;;;;;;-3.11;92.74;100059.38;4916337;28;20126;-65
2023/03/08 01:02:33;;;;;;;5.70;2.97;;;;;;;-3.19;92.45;100049.72;4914581;28;20044;-68
2023/03/08 01:05:04;;;;;;;5.38;3.60;;;;;;;-3.29;93.10;100063.84;4915011;28;20067;-64
2023/03/08 01:07:34;;;;;;;5.47;3.72;;;;;;;-3.31;93.03;100065.47;4914916;28;20048;-64
2023/03/08 01:10:05;;;;;;;7.93;3.90;;;;;;;-3.32;93.52;100061.16;4911534;28;20048;-66
2023/03/08 01:12:36;;;;;;;4.45;2.60;;;;;;;-3.32;93.76;100056.97;4912893;28;20056;-68
2023/03/08 01:15:08;;;;;;;5.57;3.58;;;;;;;-3.17;93.53;100054.06;4910775;28;20040;-68
2023/03/08 01:17:40;;;;;;;6.22;3.63;;;;;;;-3.11;93.62;100064.50;4912277;28;20121;-66
2023/03/08 01:20:12;;;;;;;4.45;3.17;;;;;;;-3.07;93.51;100061.25;4912301;28;20053;-65
2023/03/08 01:22:42;;;;;;;4.75;2.72;;;;;;;-3.13;92.41;100055.03;4907253;28;20059;-65
2023/03/08 01:25:17;;;;;;;5.30;3.70;;;;;;;-3.11;92.80;100043.19;4907288;28;20044;-65
2023/03/08 01:27:48;;;;;;;7.18;4.68;;;;;;;-3.00;93.25;100046.13;4922973;28;20083;-65
2023/03/08 01:30:19;;;;;;;3.95;3.03;;;;;;;-2.97;92.20;100041.09;4912617;28;21258;-64
2023/03/08 01:32:51;;;;;;;5.57;3.72;;;;;;;-2.89;93.00;100034.59;4894623;28;20060;-66
2023/03/08 01:35:22;;;;;;;5.28;3.58;;;;;;;-2.84;92.40;100038.16;4898042;28;20062;-67
2023/03/08 01:37:53;;;;;;;5.70;3.60;;;;;;;-2.93;91.91;100027.63;4909684;28;20510;-64
2023/03/08 01:40:24;;;;;;;6.13;3.63;;;;;;;-3.04;92.02;100035.78;4909704;28;20564;-67
2023/03/08 01:42:54;;;;;;;5.78;3.67;;;;;;;-2.93;91.96;100017.38;4912191;28;20048;-66
2023/03/08 01:46:10;;;;;;;5.78;3.83;;;;;;;-2.93;91.88;100012.28;4911682;28;20048;-67
2023/03/08 01:48:46;;;;;;;7.47;4.07;;;;;;;-3.04;91.09;99979.56;4840741;28;21171;-66
2023/03/08 01:51:21;;;;;;;4.72;3.40;;;;;;;-2.82;90.77;100016.06;4912552;28;20071;-66
2023/03/08 01:53:53;;;;;;;6.82;3.63;;;;;;;-2.64;90.81;100016.66;4902109;28;20063;-67
2023/03/08 01:56:25;;;;;;;4.43;3.00;;;;;;;-2.57;89.71;100016.84;4913199;28;20048;-65
2023/03/08 01:58:58;;;;;;;5.22;3.42;;;;;;;-2.49;89.28;100007.75;4911300;28;20057;-66
2023/03/08 02:01:29;;;;;;;4.32;3.30;;;;;;;-2.62;89.22;100002.25;4906475;28;20141;-66
2023/03/08 02:04:01;;;;;;;4.90;3.28;;;;;;;-2.61;89.12;99986.06;4902363;28;20059;-66
2023/03/08 02:06:32;;;;;;;4.65;3.35;;;;;;;-2.59;88.89;99992.94;4907391;28;20051;-65
2023/03/08 02:09:04;;;;;;;6.10;3.47;;;;;;;-2.71;88.83;99962.72;4909152;28;20049;-67
2023/03/08 02:11:37;;;;;;;5.38;3.55;;;;;;;-2.70;87.95;99959.31;4915352;28;20044;-65
2023/03/08 02:14:08;;;;;;;8.50;3.47;;;;;;;-2.80;88.25;99934.28;4925913;28;20475;-66
2023/03/08 02:16:39;;;;;;;4.90;3.20;;;;;;;-2.40;87.43;99997.78;4917915;28;20046;-66
2023/03/08 02:19:17;;;;;;;5.78;3.47;;;;;;;-2.30;87.60;99987.03;4904326;28;20127;-65
2023/03/08 02:21:48;;;;;;;3.67;2.97;;;;;;;-2.13;86.55;99984.13;4894667;28;20052;-65
2023/03/08 02:24:24;;;;;;;3.92;2.75;;;;;;;-2.21;86.13;99982.19;4903086;28;20067;-63
2023/03/08 02:27:02;;;;;;;4.43;2.70;;;;;;;-2.37;86.01;99974.88;4904661;28;20090;-62
2023/03/08 02:29:32;;;;;;;4.32;3.08;;;;;;;-2.31;86.36;99980.19;4910228;28;20060;-65
2023/03/08 02:32:03;;;;;;;4.13;3.05;;;;;;;-2.53;87.41;99980.31;4913704;28;20052;-64
2023/03/08 02:34:34;;;;;;;4.07;2.88;;;;;;;-2.73;87.76;99988.22;4909938;28;20052;-63
2023/03/08 02:37:04;;;;;;;4.53;2.97;;;;;;;-2.73;87.96;99985.66;4911188;28;20049;-64
2023/03/08 02:39:36;;;;;;;5.20;3.00;;;;;;;-2.66;87.97;99987.59;4899710;28;20141;-62
2023/03/08 02:42:07;;;;;;;3.97;3.10;;;;;;;-2.62;87.75;99979.22;4906715;28;20080;-66
2023/03/08 02:44:38;;;;;;;3.63;2.70;;;;;;;-2.59;87.37;99987.81;4916133;28;20628;-63
2023/03/08 02:47:09;;;;;;;3.72;2.47;;;;;;;-2.58;87.95;99984.44;4904160;28;21133;-64
2023/03/08 02:49:40;;;;;;;3.47;2.47;;;;;;;-2.61;87.37;99965.59;4908642;28;20053;-66
2023/03/08 02:52:10;;;;;;;4.35;3.00;;;;;;;-2.56;87.73;99962.34;4917155;28;20439;-64
2023/03/08 02:54:42;;;;;;;3.47;2.72;;;;;;;-2.43;87.61;99967.88;4907271;28;20399;-67
2023/03/08 02:57:13;;;;;;;4.68;2.78;;;;;;;-2.35;87.31;99962.97;4902626;28;20052;-68
2023/03/08 02:59:43;;;;;;;4.07;2.85;;;;;;;-2.18;87.17;99966.91;4898138;28;20154;-67
2023/03/08 03:02:14;;;;;;;3.38;2.70;;;;;;;-2.14;85.88;99956.78;4916009;28;20045;-65
2023/03/08 03:04:45;;;;;;;3.88;2.53;;;;;;;-2.21;86.26;99964.28;4913016;28;20167;-65
2023/03/08 03:07:15;;;;;;;3.47;2.47;;;;;;;-2.43;86.47;99961.88;4915301;28;20052;-66
2023/03/08 03:09:47;;;;;;;3.92;2.88;;;;;;;-2.49;87.27;99964.28;4914453;28;20059;-63
2023/03/08 03:12:18;;;;;;;4.35;2.58;;;;;;;-2.34;86.58;99946.81;4914684;28;20480;-64
2023/03/08 03:14:48;;;;;;;3.95;2.53;;;;;;;-2.64;86.66;99924.59;4917573;28;25157;-65
2023/03/08 03:17:19;;;;;;;5.28;3.33;;;;;;;-2.38;86.39;99950.09;4916211;28;20064;-66
2023/03/08 03:19:49;;;;;;;3.55;2.38;;;;;;;-2.22;85.87;99944.63;4921825;28;20073;-65
2023/03/08 03:22:20;;;;;;;4.10;2.70;;;;;;;-1.96;85.13;99949.63;4907502;28;20104;-63
2023/03/08 03:24:53;;;;;;;4.20;2.75;;;;;;;-1.71;84.16;99947.78;4899878;28;20052;-61
2023/03/08 03:27:23;;;;;;;4.70;2.90;;;;;;;-1.69;83.50;99941.00;4914190;28;20056;-61
2023/03/08 03:29:54;;;;;;;5.55;2.75;;;;;;;-1.89;83.17;99938.75;4918003;28;20059;-62
2023/03/08 03:32:25;;;;;;;6.85;2.97;;;;;;;-1.98;84.24;99938.47;4913199;28;20045;-62
2023/03/08 03:34:55;;;;;;;7.70;3.30;;;;;;;-1.95;84.10;99928.31;4914310;28;20446;-62
2023/03/08 03:37:26;;;;;;;4.55;2.83;;;;;;;-2.79;84.41;99796.25;4890565;28;20045;-61
2023/03/08 03:39:58;;;;;;;4.38;3.03;;;;;;;-2.14;84.80;99919.25;4899411;28;20244;-62
2023/03/08 03:42:29;;;;;;;3.55;2.60;;;;;;;-2.36;85.80;99909.22;4904649;28;20136;-62
2023/03/08 03:44:59;;;;;;;4.78;3.17;;;;;;;-2.21;86.27;99910.53;4931805;28;20053;-61
2023/03/08 03:47:30;;;;;;;6.38;3.83;;;;;;;-2.18;86.30;99910.59;4931745;28;20053;-62
2023/03/08 03:50:01;;;;;;;5.70;3.53;;;;;;;-2.10;86.76;99913.38;4910459;28;20098;-61
2023/03/08 03:52:32;;;;;;;3.83;3.05;;;;;;;-2.25;86.64;99913.81;4899488;28;20132;-62
2023/03/08 03:55:04;;;;;;;3.85;2.17;;;;;;;-2.30;86.12;99891.47;4906778;28;20131;-63
2023/03/08 03:57:35;;;;;;;4.65;3.08;;;;;;;-2.07;85.95;99904.91;4895274;28;20276;-60
2023/03/08 04:00:07;;;;;;;5.82;3.08;;;;;;;-2.20;85.40;99917.41;4894124;28;20055;-64
2023/03/08 04:02:37;;;;;;;4.07;2.88;;;;;;;-2.35;86.39;99906.69;4909142;28;20049;-64
2023/03/08 04:05:08;;;;;;;6.05;3.35;;;;;;;-2.25;86.95;99898.44;4902831;28;20059;-63
2023/03/08 04:07:39;;;;;;;7.22;3.40;;;;;;;-2.43;86.81;99900.47;4903186;28;20186;-64
2023/03/08 04:10:12;;;;;;;5.00;2.75;;;;;;;-2.54;87.15;99919.75;4901862;28;20942;-62
2023/03/08 04:12:43;;;;;;;4.80;3.05;;;;;;;-2.59;87.63;99913.66;4900432;28;20049;-62
2023/03/08 04:15:14;;;;;;;6.25;3.70;;;;;;;-2.72;87.42;99915.81;4905517;28;20052;-61
2023/03/08 04:17:45;;;;;;;7.13;3.65;;;;;;;-2.74;87.83;99926.81;4902565;28;20049;-61
2023/03/08 04:20:15;;;;;;;8.30;3.33;;;;;;;-2.93;87.33;99904.91;4895101;28;20072;-60
2023/03/08 04:22:46;;;;;;;5.40;3.08;;;;;;;-3.12;88.11;99888.97;4914310;28;20521;-60
2023/03/08 04:25:18;;;;;;;5.28;3.15;;;;;;;-3.40;89.24;99924.63;4913847;28;20140;-60
2023/03/08 04:27:48;;;;;;;4.57;3.08;;;;;;;-3.55;89.83;99910.50;4914868;28;20068;-60
2023/03/08 04:30:19;;;;;;;8.07;3.22;;;;;;;-3.63;90.41;99919.59;4907206;28;20054;-62
2023/03/08 04:32:50;;;;;;;5.60;3.78;;;;;;;-3.67;90.75;99927.97;4909023;28;20073;-61
2023/03/08 04:35:21;;;;;;;6.22;3.55;;;;;;;-3.70;91.01;99932.97;4900018;28;20457;-60
2023/03/08 04:37:52;;;;;;;6.05;3.30;;;;;;;-3.71;91.05;99941.47;4899726;28;20422;-61
2023/03/08 04:40:24;;;;;;;4.88;3.17;;;;;;;-3.80;91.40;99936.88;4889185;28;20061;-60
2023/03/08 04:42:54;;;;;;;5.60;3.05;;;;;;;-3.92;91.06;99926.22;4895676;28;20098;-60
2023/03/08 04:45:25;;;;;;;6.68;3.60;;;;;;;-3.84;91.44;99954.56;4898414;28;20051;-61
2023/03/08 04:47:55;;;;;;;4.50;3.20;;;;;;;-4.24;91.90;99905.53;4882536;28;20063;-62
2023/03/08 04:50:28;;;;;;;6.95;4.00;;;;;;;-3.96;92.34;99960.97;4883959;28;20133;-62
2023/03/08 04:52:59;;;;;;;7.13;3.95;;;;;;;-3.90;92.05;99950.97;4874443;28;20712;-61
2023/03/08 04:55:31;;;;;;;8.43;3.90;;;;;;;-3.97;92.51;99966.91;4871319;28;20085;-61
2023/03/08 04:58:01;;;;;;;6.72;4.15;;;;;;;-4.07;93.22;99972.47;4873619;28;20061;-61
2023/03/08 05:00:32;;;;;;;7.05;3.60;;;;;;;-4.06;93.47;99976.78;4873936;28;20773;-62
2023/03/08 05:03:02;;;;;;;8.93;4.13;;;;;;;-4.04;93.34;99977.69;4890729;28;20075;-61
2023/03/08 05:05:33;;;;;;;5.88;3.88;;;;;;;-4.14;93.45;99991.78;4912151;28;20063;-60
2023/03/08 05:08:04;;;;;;;11.60;4.53;;;;;;;-4.22;93.28;99989.75;4912522;28;20173;-61
2023/03/08 05:10:49;;;;;;;7.18;3.80;;;;;;;-4.17;93.56;99991.69;4864174;28;20052;-63
2023/03/08 05:13:20;;;;;;;10.95;4.13;;;;;;;-4.13;92.90;100007.97;4876913;28;20922;-62
2023/03/08 05:15:51;;;;;;;25.13;4.50;;;;;;;-4.34;92.90;99993.59;4903686;28;20056;-62
2023/03/08 05:18:28;;;;;;;9.88;4.15;;;;;;;-4.55;93.91;99997.81;4905482;28;20056;-62
2023/03/08 05:21:16;;;;;;;8.27;4.43;;;;;;;-4.56;93.61;99996.09;4892433;28;20056;-62
2023/03/08 05:23:47;;;;;;;6.32;3.88;;;;;;;-4.36;93.62;100046.22;4907107;28;20056;-63
2023/03/08 05:26:20;;;;;;;10.30;4.20;;;;;;;-4.41;93.76;100057.91;4905083;28;20055;-63
2023/03/08 05:28:51;;;;;;;8.60;3.55;;;;;;;-4.60;93.60;100075.81;4894445;28;20928;-63
2023/03/08 05:31:22;;;;;;;4.97;3.28;;;;;;;-4.67;94.33;100073.81;4908774;28;20048;-62
2023/03/08 05:33:53;;;;;;;5.97;3.90;;;;;;;-4.89;93.68;100059.28;4900697;28;20803;-62
2023/03/08 05:36:24;;;;;;;7.25;3.85;;;;;;;-4.86;94.28;100088.34;4901985;28;20060;-64
2023/03/08 05:38:55;;;;;;;7.20;3.88;;;;;;;-5.17;94.15;100080.19;4906088;28;20054;-64
2023/03/08 05:41:27;;;;;;;7.90;3.97;;;;;;;-5.03;94.64;100110.56;4907318;28;20873;-63
2023/03/08 05:43:58;;;;;;;6.85;3.58;;;;;;;-5.04;94.63;100133.41;4904157;28;20780;-63
2023/03/08 05:46:29;;;;;;;7.93;3.80;;;;;;;-5.05;94.43;100141.88;4902636;28;20062;-62
2023/03/08 05:49:00;;;;;;;8.43;3.88;;;;;;;-5.13;94.34;100148.31;4910674;28;20129;-63
2023/03/08 05:51:31;;;;;;;10.48;4.07;;;;;;;-5.14;94.35;100136.34;4899005;28;20049;-63
2023/03/08 05:54:01;;;;;;;7.93;3.92;;;;;;;-5.15;95.05;100170.28;4906762;28;20056;-64
2023/03/08 05:56:33;;;;;;;7.22;3.60;;;;;;;-5.16;94.29;100168.56;4905382;28;20399;-64
2023/03/08 05:59:04;;;;;;;7.82;4.15;;;;;;;-5.13;93.72;100178.88;4904969;28;20088;-63
2023/03/08 06:01:35;;;;;;;7.20;3.55;;;;;;;-5.10;93.88;100189.19;4903266;28;20144;-62
2023/03/08 06:04:09;;;;;;;7.68;3.05;;;;;;;-5.16;94.03;100189.81;4903788;28;20138;-64
2023/03/08 06:06:39;;;;;;;4.90;3.30;;;;;;;-5.22;94.25;100204.78;4901975;28;20071;-63
2023/03/08 06:09:10;;;;;;;9.75;3.80;;;;;;;-5.27;94.02;100199.47;4908312;28;21040;-63
2023/03/08 06:11:42;;;;;;;8.52;3.40;;;;;;;-5.31;94.69;100218.00;4908457;28;20477;-64
2023/03/08 06:14:12;;;;;;;8.82;3.10;;;;;;;-5.82;94.68;100138.38;4902581;28;20053;-65
2023/03/08 06:16:47;;;;;;;8.25;3.80;;;;;;;-5.37;94.22;100210.03;4908775;28;20049;-63
2023/03/08 06:19:17;;;;;;;12.95;3.15;;;;;;;-5.40;94.48;100230.28;4900768;28;20062;-64
2023/03/08 06:21:48;;;;;;;6.47;3.25;;;;;;;-5.41;94.30;100254.03;4909081;28;20063;-63
2023/03/08 06:24:18;;;;;;;5.28;3.28;;;;;;;-5.50;93.98;100248.47;4905305;28;20487;-64
2023/03/08 06:26:51;;;;;;;8.60;3.15;;;;;;;-5.73;93.96;100253.34;4899260;28;20061;-65
2023/03/08 06:29:22;;;;;;;6.50;3.08;;;;;;;-5.54;94.02;100251.66;4910083;28;20064;-64
2023/03/08 06:31:53;;;;;;;6.07;2.90;;;;;;;-5.54;93.75;100292.41;4903318;28;20060;-64
2023/03/08 06:34:23;;;;;;;6.80;3.10;;;;;;;-5.56;94.16;100291.47;4907734;28;20056;-64
2023/03/08 06:36:56;;;;;;;4.53;2.72;;;;;;;-5.58;92.99;100305.81;4901880;28;20062;-63
2023/03/08 06:39:29;;;;;;;3.95;2.47;;;;;;;-5.57;92.81;100322.81;4907568;28;20087;-63
2023/03/08 06:42:02;;;;;;;8.85;2.80;;;;;;;-5.57;92.61;100348.28;4896061;28;20142;-64
2023/03/08 06:44:33;;;;;;;6.78;2.58;;;;;;;-5.58;92.21;100346.53;4909780;28;20048;-63
2023/03/08 06:47:04;;;;;;;6.07;3.08;;;;;;;-5.56;92.17;100357.69;4906372;28;20053;-64
2023/03/08 06:49:35;;;;;;;6.55;3.20;;;;;;;-5.57;91.40;100348.28;4912061;28;20616;-63
2023/03/08 06:52:06;;;;;;;3.55;2.38;;;;;;;-5.66;90.38;100359.75;4900882;28;20806;-63
2023/03/08 06:54:37;;;;;;;7.20;3.38;;;;;;;-5.63;90.90;100374.31;4901195;28;20059;-64
2023/03/08 06:57:09;;;;;;;3.33;2.35;;;;;;;-5.67;89.28;100373.25;4907398;28;20436;-63
2023/03/08 06:59:40;;;;;;;9.85;2.65;;;;;;;-5.67;90.84;100393.63;4909743;28;20125;-64
2023/03/08 07:02:11;;;;;;;6.10;3.00;;;;;;;-5.65;90.50;100399.66;4904246;28;20068;-64
2023/03/08 07:04:42;;;;;;;4.68;2.08;;;;;;;-5.61;90.15;100415.13;4901740;28;20101;-64
2023/03/08 07:07:12;;;;;;;11.23;2.00;;;;;;;-5.64;88.87;100423.47;4907039;28;20047;-64
2023/03/08 07:09:42;;;;;;;5.57;2.75;;;;;;;-5.70;89.61;100428.25;4910058;28;20055;-63
2023/03/08 07:12:14;;;;;;;5.20;3.25;;;;;;;-5.69;90.79;100428.34;4901419;28;20063;-64
2023/03/08 07:14:45;;;;;;;5.80;2.75;;;;;;;-5.64;90.95;100424.34;4909820;28;20495;-64
2023/03/08 07:17:16;;;;;;;5.13;2.85;;;;;;;-5.64;91.71;100429.44;4906606;28;20064;-64
2023/03/08 07:19:47;;;;;;;7.20;2.67;;;;;;;-5.73;91.98;100413.69;4911565;28;20052;-64
2023/03/08 07:22:17;;;;;;;4.68;3.13;;;;;;;-5.65;92.72;100422.59;4903853;28;20071;-64
2023/03/08 07:24:48;;;;;;;7.03;2.92;;;;;;;-5.66;92.81;100441.22;4912511;28;20060;-64
2023/03/08 07:27:20;;;;;;;6.47;2.78;;;;;;;-5.72;93.14;100435.78;4903115;28;20068;-64
2023/03/08 07:29:51;;;;;;;4.40;2.65;;;;;;;-5.82;93.47;100428.47;4906419;28;20062;-65
2023/03/08 07:32:27;;;;;;;4.65;2.63;;;;;;;-5.85;93.18;100443.59;4904402;28;20099;-65
2023/03/08 07:34:58;;;;;;;6.13;2.78;;;;;;;-5.97;94.02;100448.06;4909255;28;20067;-65
2023/03/08 07:37:29;;;;;;;6.07;2.70;;;;;;;-5.89;94.29;100456.94;4906047;28;20702;-64
2023/03/08 07:39:59;;;;;;;3.53;2.53;;;;;;;-5.96;94.77;100465.09;4910798;28;20064;-65
2023/03/08 07:42:31;;;;;;;5.43;2.95;;;;;;;-5.95;94.79;100507.56;4914808;28;20033;-65
2023/03/08 07:45:02;;;;;;;4.53;2.53;;;;;;;-6.01;94.86;100497.06;4903114;28;20053;-65
2023/03/08 07:47:33;;;;;;;7.80;3.00;;;;;;;-6.02;93.93;100510.56;4908730;28;20048;-65
2023/03/08 07:50:03;;;;;;;5.65;2.80;;;;;;;-6.08;93.70;100527.25;4911253;28;20044;-65
2023/03/08 07:52:34;;;;;;;3.25;2.00;;;;;;;-6.11;93.84;100527.09;4909216;28;20650;-65
2023/03/08 07:55:04;;;;;;;5.40;2.63;;;;;;;-6.16;93.63;100513.25;4905143;28;20402;-65
2023/03/08 07:57:36;;;;;;;7.28;3.50;;;;;;;-6.12;94.33;100540.56;4903572;28;20086;-64
2023/03/08 08:00:08;;;;;;;4.13;2.58;;;;;;;-6.13;93.95;100569.38;4909498;28;20056;-64
2023/03/08 08:02:40;;;;;;;5.53;3.05;;;;;;;-6.16;93.95;100556.47;4901789;28;20125;-65
2023/03/08 08:05:14;;;;;;;6.05;2.70;;;;;;;-6.21;93.64;100575.69;4908546;28;20054;-64
2023/03/08 08:07:47;;;;;;;5.75;3.00;;;;;;;-6.19;94.28;100574.13;4902681;28;20221;-65
2023/03/08 08:10:34;;;;;;;7.20;2.70;;;;;;;-6.25;94.07;100594.13;4904825;28;21447;-65
2023/03/08 08:13:16;;;;;;;12.07;2.83;;;;;;;-6.53;93.92;100551.00;4892595;28;20044;-66
2023/03/08 08:15:47;;;;;;;4.68;2.72;;;;;;;-6.31;93.64;100598.88;4902848;28;20059;-65
2023/03/08 08:18:31;;;;;;;4.07;2.75;;;;;;;-6.32;93.74;100607.25;4908786;28;20187;-65
2023/03/08 08:21:09;;;;;;;9.65;2.65;;;;;;;-6.37;93.23;100603.59;4892069;28;20668;-65
2023/03/08 08:23:41;;;;;;;3.25;2.22;;;;;;;-6.39;93.43;100602.63;4903387;28;20053;-65
2023/03/08 08:26:17;;;;;;;5.28;2.78;;;;;;;-6.44;93.81;100597.31;4904406;28;20049;-65
2023/03/08 08:28:54;;;;;;;3.78;2.33;;;;;;;-6.42;93.91;100615.16;4911603;28;20048;-65
2023/03/08 08:31:30;;;;;;;4.57;2.33;;;;;;;-6.73;93.48;100543.13;4890110;28;20064;-66
2023/03/08 08:34:01;;;;;;;5.65;2.33;;;;;;;-6.39;93.40;100606.06;4894111;28;20094;-66
2023/03/08 08:36:35;;;;;;;4.60;2.50;;;;;;;-6.41;92.96;100627.09;4909682;28;20053;-66
2023/03/08 08:39:06;;;;;;;5.85;3.22;;;;;;;-6.38;92.72;100637.44;4905483;28;20053;-66
2023/03/08 08:41:37;;;;;;;3.75;2.45;;;;;;;-6.37;92.79;100669.69;4906622;28;20049;-66
2023/03/08 08:44:09;;;;;;;9.40;2.85;;;;;;;-6.34;92.53;100674.97;4904356;28;20067;-66
2023/03/08 08:46:40;;;;;;;4.75;2.47;;;;;;;-6.36;92.87;100672.34;4906139;28;20116;-66
2023/03/08 08:49:11;;;;;;;3.65;2.15;;;;;;;-6.32;92.95;100688.66;4904082;28;20169;-66
2023/03/08 08:51:41;;;;;;;6.50;2.75;;;;;;;-6.32;92.56;100683.56;4903074;28;20797;-66
2023/03/08 08:54:15;;;;;;;4.35;2.30;;;;;;;-6.34;92.61;100687.66;4908767;28;20518;-66
2023/03/08 08:56:46;;;;;;;3.65;2.58;;;;;;;-6.33;92.14;100722.50;4904962;28;20479;-66
2023/03/08 08:59:18;;;;;;;8.63;2.92;;;;;;;-6.37;92.14;100720.56;4906495;28;20067;-66
2023/03/08 09:01:49;;;;;;;4.90;2.60;;;;;;;-6.38;91.87;100718.81;4900649;28;20061;-66
2023/03/08 09:04:20;;;;;;;3.25;2.58;;;;;;;-6.37;91.95;100720.56;4914989;28;20119;-66
2023/03/08 09:06:52;;;;;;;9.60;2.08;;;;;;;-6.42;91.54;100742.28;4904497;28;20504;-66
2023/03/08 09:09:22;;;;;;;3.85;2.35;;;;;;;-6.37;91.40;100751.06;4908428;28;20055;-65
2023/03/08 09:11:53;;;;;;;3.35;2.20;;;;;;;-6.36;91.69;100747.75;4905474;28;20462;-66
2023/03/08 09:14:26;;;;;;;2.45;1.98;;;;;;;-6.35;91.96;100755.47;4903759;28;20052;-66
2023/03/08 09:16:57;;;;;;;3.03;2.60;;;;;;;-6.36;91.80;100763.00;4897702;28;20055;-66
2023/03/08 09:19:30;;;;;;;4.05;3.03;;;;;;;-6.37;91.59;100766.31;4909124;28;20070;-65
2023/03/08 09:22:01;;;;;;;3.63;2.85;;;;;;;-6.39;91.14;100778.97;4899552;28;20048;-66
2023/03/08 09:24:32;;;;;;;3.88;2.10;;;;;;;-6.43;90.76;100765.97;4902068;28;20412;-66
2023/03/08 09:27:05;;;;;;;4.47;2.20;;;;;;;-6.46;90.59;100803.91;4903707;28;20052;-66
2023/03/08 09:29:38;;;;;;;5.13;2.75;;;;;;;-6.48;90.66;100813.13;4906696;28;20048;-65
2023/03/08 09:32:09;;;;;;;2.10;1.90;;;;;;;-6.51;90.69;100808.75;4909566;28;20059;-67
2023/03/08 09:34:40;;;;;;;5.38;2.80;;;;;;;-6.52;90.90;100823.09;4900104;28;20579;-66
2023/03/08 09:37:12;;;;;;;4.28;2.80;;;;;;;-6.55;90.48;100825.44;4902956;28;20461;-65
2023/03/08 09:39:43;;;;;;;5.80;2.90;;;;;;;-6.52;90.57;100818.00;4905432;28;20052;-66
2023/03/08 09:42:22;;;;;;;2.88;2.20;;;;;;;-6.54;90.58;100822.16;4901671;28;20131;-66
2023/03/08 09:45:16;;;;;;;4.18;2.67;;;;;;;-6.58;90.58;100822.72;4897785;28;20063;-66
2023/03/08 09:47:52;;;;;;;5.13;2.97;;;;;;;-6.57;90.63;100838.84;4895981;28;20087;-66
2023/03/08 09:50:34;;;;;;;3.63;2.35;;;;;;;-6.60;90.67;100844.63;4895428;28;20143;-66
2023/03/08 09:53:18;;;;;;;7.47;3.33;;;;;;;-6.63;90.78;100844.44;4889032;28;20044;-66
2023/03/08 09:55:53;;;;;;;5.93;3.30;;;;;;;-6.64;91.23;100845.25;4895755;28;20090;-64
2023/03/08 09:58:35;;;;;;;6.10;3.38;;;;;;;-7.32;91.40;100725.84;4902689;28;20068;-66
2023/03/08 10:01:21;;;;;;;5.40;2.90;;;;;;;-6.66;91.59;100859.53;4893822;28;20063;-67
2023/03/08 10:04:16;;;;;;;7.38;3.13;;;;;;;-6.70;91.56;100852.47;4885698;28;20060;-66
2023/03/08 10:06:57;;;;;;;5.03;3.25;;;;;;;-6.76;91.63;100862.28;4899284;28;20056;-66
2023/03/08 10:09:34;;;;;;;7.07;3.13;;;;;;;-7.39;91.98;100757.59;4897819;28;20054;-66
2023/03/08 10:12:20;;;;;;;7.05;3.78;;;;;;;-7.42;91.86;100765.00;4891257;28;20059;-65
2023/03/08 10:14:56;;;;;;;5.03;3.30;;;;;;;-6.76;91.95;100888.56;4898822;28;21456;-66
2023/03/08 10:17:38;;;;;;;5.38;2.95;;;;;;;-6.74;91.79;100901.34;4903719;28;20072;-66
2023/03/08 10:20:18;;;;;;;4.05;2.35;;;;;;;-6.80;92.04;100895.88;4892317;28;20519;-67
2023/03/08 10:22:58;;;;;;;5.18;3.03;;;;;;;-6.72;91.93;100909.94;4891329;28;20052;-66
2023/03/08 10:25:32;;;;;;;5.80;3.22;;;;;;;-6.78;92.05;100915.53;4907971;28;20554;-66
2023/03/08 10:28:04;;;;;;;9.18;3.22;;;;;;;-6.70;92.19;100928.72;4892489;28;20695;-67
2023/03/08 10:30:37;;;;;;;6.75;3.38;;;;;;;-7.19;91.94;100854.47;4901357;28;20200;-66
2023/03/08 10:33:12;;;;;;;7.20;3.72;;;;;;;-6.67;91.62;100939.06;4906470;28;20143;-66
2023/03/08 10:35:56;;;;;;;5.63;3.30;;;;;;;-6.62;91.60;100958.03;4899228;28;20059;-66
2023/03/08 10:38:29;;;;;;;5.40;3.08;;;;;;;-6.63;91.74;100948.66;4893042;28;20438;-66
2023/03/08 10:41:02;;;;;;;5.25;2.85;;;;;;;-6.74;91.67;100942.00;4895584;28;20065;-66
2023/03/08 10:43:37;;;;;;;7.00;3.20;;;;;;;-7.25;91.48;100849.00;4911537;28;20076;-66
2023/03/08 10:46:13;;;;;;;7.35;2.88;;;;;;;-6.63;91.66;100961.38;4909976;28;20048;-65
2023/03/08 10:48:45;;;;;;;6.80;3.30;;;;;;;-6.60;92.00;100976.81;4893799;28;20497;-66
2023/03/08 10:51:21;;;;;;;3.17;2.58;;;;;;;-7.07;91.87;100911.13;4906229;28;20077;-66
2023/03/08 10:54:21;;;;;;;8.60;4.13;;;;;;;-6.52;91.74;100985.81;4898919;28;20437;-67
2023/03/08 10:56:58;;;;;;;4.50;2.88;;;;;;;-7.06;91.78;100896.75;4787658;28;20360;-66
2023/03/08 10:59:32;;;;;;;5.40;3.17;;;;;;;-6.46;91.82;100994.59;4800936;28;20119;-66
2023/03/08 11:02:21;;;;;;;6.53;3.22;;;;;;;-6.49;91.96;100996.94;4822921;28;20051;-66
2023/03/08 11:04:57;;;;;;;6.15;3.10;;;;;;;-6.53;92.10;100999.31;4795613;28;20109;-66
2023/03/08 11:07:30;;;;;;;11.13;4.18;;;;;;;-6.59;91.88;100996.38;4804825;28;20149;-66
2023/03/08 11:10:19;;;;;;;6.65;3.72;;;;;;;-6.55;92.25;100995.78;4793916;28;20056;-66
2023/03/08 11:13:01;;;;;;;9.55;3.67;;;;;;;-6.43;92.15;101010.06;4795048;28;20064;-66
2023/03/08 11:15:36;;;;;;;6.50;3.20;;;;;;;-6.51;92.40;100997.75;4794790;28;20051;-66
2023/03/08 11:18:20;;;;;;;9.02;3.92;;;;;;;-6.40;92.32;101015.34;4804714;28;20047;-66
2023/03/08 11:20:59;;;;;;;7.82;3.95;;;;;;;-6.44;92.29;101018.47;4787618;28;20215;-65
2023/03/08 11:23:37;;;;;;;5.78;3.75;;;;;;;-6.41;92.36;101028.84;4797703;28;20465;-65
2023/03/08 11:26:20;;;;;;;7.63;4.15;;;;;;;-6.39;92.49;101032.34;4818665;28;20113;-65
2023/03/08 11:29:07;;;;;;;7.90;4.10;;;;;;;-6.37;92.46;101030.78;4795851;28;20467;-66
2023/03/08 11:31:51;;;;;;;7.07;3.90;;;;;;;-6.48;92.25;101014.00;4793509;28;20047;-64
2023/03/08 11:34:51;;;;;;;7.43;3.35;;;;;;;-6.36;92.51;101037.66;4792115;28;20051;-66
2023/03/08 11:37:32;;;;;;;5.13;3.15;;;;;;;-6.36;91.90;101033.44;4782726;28;20166;-66
2023/03/08 11:40:18;;;;;;;5.20;2.80;;;;;;;-6.98;91.84;100942.22;4792799;28;20129;-66
2023/03/08 11:43:05;;;;;;;5.15;3.00;;;;;;;-6.66;91.79;101006.94;4799345;28;20064;-66
2023/03/08 11:45:44;;;;;;;4.00;2.63;;;;;;;-6.58;91.80;101017.59;4794203;28;20106;-67
2023/03/08 11:48:46;;;;;;;6.80;3.10;;;;;;;-6.37;91.89;101053.69;4894209;28;20080;-66
2023/03/08 11:51:23;;;;;;;6.03;3.20;;;;;;;-6.31;91.72;101061.72;4908006;28;21154;-65
2023/03/08 11:54:08;;;;;;;4.82;2.88;;;;;;;-6.31;91.29;101056.63;4896221;28;20056;-66
2023/03/08 11:56:47;;;;;;;5.22;3.30;;;;;;;-6.28;91.48;101056.81;4894837;28;20065;-65